sensor_id;sensor_type;location;lat;lon;timestamp;temperature;humidity
1049;DHT22;513;51.444;7.196;2023-02-01T00:01:05;5.50;99.90
1049;DHT22;513;51.444;7.196;2023-02-01T00:03:32;5.50;99.90
1049;DHT22;513;51.444;7.196;2023-02-01T00:05:59;5.50;99.90
1049;DHT22;513;51.444;7.196;2023-02-01T00:08:26;5.50;99.90
1049;DHT22;513;51.444;7.196;2023-02-01T00:11:00;5.50;99.90
1049;DHT22;513;51.444;7.196;2023-02-01T00:13:31;5.50;99.90
1049;DHT22;513;51.444;7.196;2023-02-01T00:16:07;5.60;99.90
1049;DHT22;513;51.444;7.196;2023-02-01T00:18:34;5.50;99.90
1049;DHT22;513;51.444;7.196;2023-02-01T00:21:01;5.60;99.90
1049;DHT22;513;51.444;7.196;2023-02-01T00:23:28;5.50;99.90
1049;DHT22;513;51.444;7.196;2023-02-01T00:25:54;5.50;99.90
1049;DHT22;513;51.444;7.196;2023-02-01T00:28:21;5.60;99.90
1049;DHT22;513;51.444;7.196;2023-02-01T00:30:56;5.50;99.90
1049;DHT22;513;51.444;7.196;2023-02-01T00:33:24;5.60;99.90
1049;DHT22;513;51.444;7.196;2023-02-01T00:35:50;5.50;99.90
1049;DHT22;513;51.444;7.196;2023-02-01T00:38:17;5.50;99.90
1049;DHT22;513;51.444;7.196;2023-02-01T00:40:44;5.60;99.90
1049;DHT22;513;51.444;7.196;2023-02-01T00:43:11;5.60;99.90
1049;DHT22;513;51.444;7.196;2023-02-01T00:45:37;5.50;99.90
1049;DHT22;513;51.444;7.196;2023-02-01T00:48:05;5.50;99.90
1049;DHT22;513;51.444;7.196;2023-02-01T00:50:33;5.60;99.90
1049;DHT22;513;51.444;7.196;2023-02-01T00:52:59;5.60;99.90
1049;DHT22;513;51.444;7.196;2023-02-01T00:55:26;5.60;99.90
1049;DHT22;513;51.444;7.196;2023-02-01T00:57:53;5.50;99.90
1049;DHT22;513;51.444;7.196;2023-02-01T01:00:19;5.50;99.90
1049;DHT22;513;51.444;7.196;2023-02-01T01:02:46;5.50;99.90
1049;DHT22;513;51.444;7.196;2023-02-01T01:05:15;5.50;99.90
1049;DHT22;513;51.444;7.196;2023-02-01T01:07:43;5.60;99.90
1049;DHT22;513;51.444;7.196;2023-02-01T01:10:10;5.60;99.90
1049;DHT22;513;51.444;7.196;2023-02-01T01:12:37;5.60;99.90
1049;DHT22;513;51.444;7.196;2023-02-01T01:15:04;5.60;99.90
1049;DHT22;513;51.444;7.196;2023-02-01T01:17:31;5.60;99.90
1049;DHT22;513;51.444;7.196;2023-02-01T01:19:58;5.60;99.90
1049;DHT22;513;51.444;7.196;2023-02-01T01:22:25;5.60;99.90
1049;DHT22;513;51.444;7.196;2023-02-01T01:24:53;5.60;99.90
1049;DHT22;513;51.444;7.196;2023-02-01T01:27:20;5.60;99.90
1049;DHT22;513;51.444;7.196;2023-02-01T01:29:49;5.50;99.90
1049;DHT22;513;51.444;7.196;2023-02-01T01:32:16;5.50;99.90
1049;DHT22;513;51.444;7.196;2023-02-01T01:34:42;5.50;99.90
1049;DHT22;513;51.444;7.196;2023-02-01T01:37:09;5.50;99.90
1049;DHT22;513;51.444;7.196;2023-02-01T01:39:36;5.40;99.90
1049;DHT22;513;51.444;7.196;2023-02-01T01:42:04;5.50;99.90
1049;DHT22;513;51.444;7.196;2023-02-01T01:44:56;5.60;99.90
1049;DHT22;513;51.444;7.196;2023-02-01T01:47:23;5.50;99.90
1049;DHT22;513;51.444;7.196;2023-02-01T01:49:51;5.60;99.90
1049;DHT22;513;51.444;7.196;2023-02-01T01:52:18;5.60;99.90
1049;DHT22;513;51.444;7.196;2023-02-01T01:54:47;5.50;99.90
1049;DHT22;513;51.444;7.196;2023-02-01T01:57:18;5.50;99.90
1049;DHT22;513;51.444;7.196;2023-02-01T01:59:50;5.60;99.90
1049;DHT22;513;51.444;7.196;2023-02-01T02:02:19;5.50;99.90
1049;DHT22;513;51.444;7.196;2023-02-01T02:04:46;5.50;99.90
1049;DHT22;513;51.444;7.196;2023-02-01T02:07:16;5.50;99.90
1049;DHT22;513;51.444;7.196;2023-02-01T02:09:44;5.50;99.90
1049;DHT22;513;51.444;7.196;2023-02-01T02:12:10;5.50;99.90
1049;DHT22;513;51.444;7.196;2023-02-01T02:14:39;5.60;99.90
1049;DHT22;513;51.444;7.196;2023-02-01T02:17:21;5.60;99.90
1049;DHT22;513;51.444;7.196;2023-02-01T02:20:40;5.50;99.90
1049;DHT22;513;51.444;7.196;2023-02-01T02:26:35;5.40;99.90
1049;DHT22;513;51.444;7.196;2023-02-01T02:29:23;5.40;99.90
1049;DHT22;513;51.444;7.196;2023-02-01T02:32:17;5.40;99.90
1049;DHT22;513;51.444;7.196;2023-02-01T02:34:55;5.40;99.90
1049;DHT22;513;51.444;7.196;2023-02-01T02:37:30;5.40;99.90
1049;DHT22;513;51.444;7.196;2023-02-01T02:40:05;5.50;99.90
1049;DHT22;513;51.444;7.196;2023-02-01T02:42:39;5.50;99.90
1049;DHT22;513;51.444;7.196;2023-02-01T02:45:28;5.40;99.90
1049;DHT22;513;51.444;7.196;2023-02-01T02:48:19;5.50;98.00
1049;DHT22;513;51.444;7.196;2023-02-01T02:50:53;5.40;97.00
1049;DHT22;513;51.444;7.196;2023-02-01T02:53:43;5.40;93.60
1049;DHT22;513;51.444;7.196;2023-02-01T02:56:30;5.40;92.80
1049;DHT22;513;51.444;7.196;2023-02-01T02:59:18;5.40;92.60
1049;DHT22;513;51.444;7.196;2023-02-01T03:02:04;5.40;91.00
1049;DHT22;513;51.444;7.196;2023-02-01T03:04:52;5.40;81.20
1049;DHT22;513;51.444;7.196;2023-02-01T03:07:51;5.40;81.90
1049;DHT22;513;51.444;7.196;2023-02-01T03:10:26;5.40;80.50
1049;DHT22;513;51.444;7.196;2023-02-01T03:13:01;5.50;72.70
1049;DHT22;513;51.444;7.196;2023-02-01T03:15:33;5.40;62.20
1049;DHT22;513;51.444;7.196;2023-02-01T03:18:05;5.30;64.50
1049;DHT22;513;51.444;7.196;2023-02-01T03:20:34;5.30;63.40
1049;DHT22;513;51.444;7.196;2023-02-01T03:23:04;5.20;72.90
1049;DHT22;513;51.444;7.196;2023-02-01T03:25:33;5.10;74.00
1049;DHT22;513;51.444;7.196;2023-02-01T03:28:02;5.10;91.40
1049;DHT22;513;51.444;7.196;2023-02-01T03:30:32;5.10;85.60
1049;DHT22;513;51.444;7.196;2023-02-01T03:33:04;5.10;79.40
1049;DHT22;513;51.444;7.196;2023-02-01T03:35:40;5.10;76.90
1049;DHT22;513;51.444;7.196;2023-02-01T03:38:18;5.20;77.50
1049;DHT22;513;51.444;7.196;2023-02-01T03:40:51;5.20;73.60
1049;DHT22;513;51.444;7.196;2023-02-01T03:43:19;5.20;73.60
1049;DHT22;513;51.444;7.196;2023-02-01T03:45:50;5.10;72.70
1049;DHT22;513;51.444;7.196;2023-02-01T03:48:21;5.10;61.90
1049;DHT22;513;51.444;7.196;2023-02-01T03:50:52;5.20;69.70
1049;DHT22;513;51.444;7.196;2023-02-01T03:53:22;5.20;73.80
1049;DHT22;513;51.444;7.196;2023-02-01T03:55:51;5.20;77.20
1049;DHT22;513;51.444;7.196;2023-02-01T03:58:20;5.20;75.80
1049;DHT22;513;51.444;7.196;2023-02-01T04:00:51;5.20;80.20
1049;DHT22;513;51.444;7.196;2023-02-01T04:03:19;5.20;83.30
1049;DHT22;513;51.444;7.196;2023-02-01T04:05:47;5.20;75.90
1049;DHT22;513;51.444;7.196;2023-02-01T04:08:13;5.20;80.80
1049;DHT22;513;51.444;7.196;2023-02-01T04:10:41;5.10;85.10
1049;DHT22;513;51.444;7.196;2023-02-01T04:13:09;5.20;81.10
1049;DHT22;513;51.444;7.196;2023-02-01T04:15:36;5.20;79.30
1049;DHT22;513;51.444;7.196;2023-02-01T04:18:03;5.20;87.90
1049;DHT22;513;51.444;7.196;2023-02-01T04:20:30;5.30;88.00
1049;DHT22;513;51.444;7.196;2023-02-01T04:22:56;5.20;90.90
1049;DHT22;513;51.444;7.196;2023-02-01T04:25:23;5.30;86.40
1049;DHT22;513;51.444;7.196;2023-02-01T04:27:51;5.30;87.00
1049;DHT22;513;51.444;7.196;2023-02-01T04:30:18;5.30;90.10
1049;DHT22;513;51.444;7.196;2023-02-01T04:32:45;5.30;95.20
1049;DHT22;513;51.444;7.196;2023-02-01T04:35:12;5.30;99.20
1049;DHT22;513;51.444;7.196;2023-02-01T04:37:38;5.30;99.30
1049;DHT22;513;51.444;7.196;2023-02-01T04:40:06;5.30;97.30
1049;DHT22;513;51.444;7.196;2023-02-01T04:42:33;5.40;97.60
1049;DHT22;513;51.444;7.196;2023-02-01T04:45:01;5.40;92.30
1049;DHT22;513;51.444;7.196;2023-02-01T04:47:28;5.40;96.80
1049;DHT22;513;51.444;7.196;2023-02-01T04:49:54;5.40;95.30
1049;DHT22;513;51.444;7.196;2023-02-01T04:52:21;5.40;96.70
1049;DHT22;513;51.444;7.196;2023-02-01T04:54:48;5.40;96.20
1049;DHT22;513;51.444;7.196;2023-02-01T04:57:14;5.40;96.10
1049;DHT22;513;51.444;7.196;2023-02-01T04:59:41;5.40;99.90
1049;DHT22;513;51.444;7.196;2023-02-01T05:02:09;5.40;98.80
1049;DHT22;513;51.444;7.196;2023-02-01T05:04:36;5.40;99.90
1049;DHT22;513;51.444;7.196;2023-02-01T05:07:02;5.40;99.90
1049;DHT22;513;51.444;7.196;2023-02-01T05:09:29;5.40;99.90
1049;DHT22;513;51.444;7.196;2023-02-01T05:11:56;5.40;99.90
1049;DHT22;513;51.444;7.196;2023-02-01T05:14:40;5.40;99.90
1049;DHT22;513;51.444;7.196;2023-02-01T05:17:07;5.40;99.90
1049;DHT22;513;51.444;7.196;2023-02-01T05:19:35;5.40;99.90
1049;DHT22;513;51.444;7.196;2023-02-01T05:22:01;5.30;99.90
1049;DHT22;513;51.444;7.196;2023-02-01T05:24:28;5.40;99.90
1049;DHT22;513;51.444;7.196;2023-02-01T05:26:55;5.40;99.90
1049;DHT22;513;51.444;7.196;2023-02-01T05:29:21;5.30;99.90
1049;DHT22;513;51.444;7.196;2023-02-01T05:31:48;5.40;99.90
1049;DHT22;513;51.444;7.196;2023-02-01T05:34:16;5.40;99.90
1049;DHT22;513;51.444;7.196;2023-02-01T05:36:44;5.40;99.90
1049;DHT22;513;51.444;7.196;2023-02-01T05:39:11;5.40;99.90
1049;DHT22;513;51.444;7.196;2023-02-01T05:41:38;5.30;99.90
1049;DHT22;513;51.444;7.196;2023-02-01T05:44:05;5.30;99.90
1049;DHT22;513;51.444;7.196;2023-02-01T05:46:33;5.30;99.90
1049;DHT22;513;51.444;7.196;2023-02-01T05:48:59;5.30;99.90
1049;DHT22;513;51.444;7.196;2023-02-01T05:51:26;5.30;99.90
1049;DHT22;513;51.444;7.196;2023-02-01T05:53:54;5.30;99.90
1049;DHT22;513;51.444;7.196;2023-02-01T05:56:21;5.20;99.90
1049;DHT22;513;51.444;7.196;2023-02-01T05:58:47;5.20;99.90
1049;DHT22;513;51.444;7.196;2023-02-01T06:01:14;5.20;99.90
1049;DHT22;513;51.444;7.196;2023-02-01T06:03:41;5.10;99.90
1049;DHT22;513;51.444;7.196;2023-02-01T06:06:07;5.10;99.90
1049;DHT22;513;51.444;7.196;2023-02-01T06:08:34;5.10;99.90
1049;DHT22;513;51.444;7.196;2023-02-01T06:11:04;5.10;99.90
1049;DHT22;513;51.444;7.196;2023-02-01T06:13:31;5.10;99.90
1049;DHT22;513;51.444;7.196;2023-02-01T06:15:58;5.20;99.90
1049;DHT22;513;51.444;7.196;2023-02-01T06:18:25;5.20;99.90
1049;DHT22;513;51.444;7.196;2023-02-01T06:20:53;5.10;99.90
1049;DHT22;513;51.444;7.196;2023-02-01T06:23:20;5.20;99.90
1049;DHT22;513;51.444;7.196;2023-02-01T06:25:49;5.20;99.90
1049;DHT22;513;51.444;7.196;2023-02-01T06:28:17;5.20;99.90
1049;DHT22;513;51.444;7.196;2023-02-01T06:30:44;5.20;99.90
1049;DHT22;513;51.444;7.196;2023-02-01T06:33:12;5.20;99.90
1049;DHT22;513;51.444;7.196;2023-02-01T06:35:40;5.30;99.90
1049;DHT22;513;51.444;7.196;2023-02-01T06:38:08;5.30;99.90
1049;DHT22;513;51.444;7.196;2023-02-01T06:40:34;5.30;99.90
1049;DHT22;513;51.444;7.196;2023-02-01T06:43:01;5.30;99.90
1049;DHT22;513;51.444;7.196;2023-02-01T06:45:30;5.20;99.90
1049;DHT22;513;51.444;7.196;2023-02-01T06:47:58;5.20;99.90
1049;DHT22;513;51.444;7.196;2023-02-01T06:50:26;5.20;99.90
1049;DHT22;513;51.444;7.196;2023-02-01T06:52:52;5.20;99.90
1049;DHT22;513;51.444;7.196;2023-02-01T06:55:19;5.20;99.90
1049;DHT22;513;51.444;7.196;2023-02-01T06:57:46;5.20;99.90
1049;DHT22;513;51.444;7.196;2023-02-01T07:00:13;5.20;99.90
1049;DHT22;513;51.444;7.196;2023-02-01T07:02:42;5.30;99.90
1049;DHT22;513;51.444;7.196;2023-02-01T07:05:09;5.30;99.90
1049;DHT22;513;51.444;7.196;2023-02-01T07:07:35;5.30;99.90
1049;DHT22;513;51.444;7.196;2023-02-01T07:10:03;5.30;99.90
1049;DHT22;513;51.444;7.196;2023-02-01T07:12:30;5.30;99.90
1049;DHT22;513;51.444;7.196;2023-02-01T07:14:56;5.40;99.90
1049;DHT22;513;51.444;7.196;2023-02-01T07:17:23;5.40;99.90
1049;DHT22;513;51.444;7.196;2023-02-01T07:19:51;5.40;99.90
1049;DHT22;513;51.444;7.196;2023-02-01T07:22:18;5.40;99.90
1049;DHT22;513;51.444;7.196;2023-02-01T07:24:45;5.50;99.70
1049;DHT22;513;51.444;7.196;2023-02-01T07:27:11;5.50;97.90
1049;DHT22;513;51.444;7.196;2023-02-01T07:29:38;5.50;99.50
1049;DHT22;513;51.444;7.196;2023-02-01T07:32:05;5.50;97.20
1049;DHT22;513;51.444;7.196;2023-02-01T07:34:32;5.50;99.90
1049;DHT22;513;51.444;7.196;2023-02-01T07:37:00;5.50;99.90
1049;DHT22;513;51.444;7.196;2023-02-01T07:39:28;5.50;99.90
1049;DHT22;513;51.444;7.196;2023-02-01T07:41:57;5.60;99.90
1049;DHT22;513;51.444;7.196;2023-02-01T07:44:24;5.50;99.90
1049;DHT22;513;51.444;7.196;2023-02-01T07:46:50;5.60;99.00
1049;DHT22;513;51.444;7.196;2023-02-01T07:49:17;5.50;99.90
1049;DHT22;513;51.444;7.196;2023-02-01T07:51:44;5.60;99.90
1049;DHT22;513;51.444;7.196;2023-02-01T07:54:12;5.50;99.90
1049;DHT22;513;51.444;7.196;2023-02-01T07:56:38;5.50;99.90
1049;DHT22;513;51.444;7.196;2023-02-01T07:59:08;5.50;99.90
1049;DHT22;513;51.444;7.196;2023-02-01T08:01:36;5.60;99.90
1049;DHT22;513;51.444;7.196;2023-02-01T08:04:03;5.60;99.40
1049;DHT22;513;51.444;7.196;2023-02-01T08:06:32;5.70;99.00
1049;DHT22;513;51.444;7.196;2023-02-01T08:09:00;5.70;98.80
1049;DHT22;513;51.444;7.196;2023-02-01T08:11:29;5.80;97.20
1049;DHT22;513;51.444;7.196;2023-02-01T08:13:56;5.70;99.60
1049;DHT22;513;51.444;7.196;2023-02-01T08:16:23;5.70;99.40
1049;DHT22;513;51.444;7.196;2023-02-01T08:18:50;5.70;99.90
1049;DHT22;513;51.444;7.196;2023-02-01T08:21:19;5.70;99.90
1049;DHT22;513;51.444;7.196;2023-02-01T08:23:47;5.70;99.90
1049;DHT22;513;51.444;7.196;2023-02-01T08:26:15;5.70;99.90
1049;DHT22;513;51.444;7.196;2023-02-01T08:28:46;5.70;99.90
1049;DHT22;513;51.444;7.196;2023-02-01T08:31:15;5.70;99.90
1049;DHT22;513;51.444;7.196;2023-02-01T08:33:43;5.70;99.90
1049;DHT22;513;51.444;7.196;2023-02-01T08:36:10;5.70;99.90
1049;DHT22;513;51.444;7.196;2023-02-01T08:38:38;5.70;99.90
1049;DHT22;513;51.444;7.196;2023-02-01T08:41:06;5.80;99.90
1049;DHT22;513;51.444;7.196;2023-02-01T08:43:34;5.80;99.90
1049;DHT22;513;51.444;7.196;2023-02-01T08:46:02;5.80;99.90
1049;DHT22;513;51.444;7.196;2023-02-01T08:48:29;5.80;99.90
1049;DHT22;513;51.444;7.196;2023-02-01T08:50:56;5.90;99.90
1049;DHT22;513;51.444;7.196;2023-02-01T08:53:23;5.90;99.90
1049;DHT22;513;51.444;7.196;2023-02-01T08:55:49;5.90;99.90
1049;DHT22;513;51.444;7.196;2023-02-01T08:58:16;5.90;99.90
1049;DHT22;513;51.444;7.196;2023-02-01T09:00:43;5.90;99.90
1049;DHT22;513;51.444;7.196;2023-02-01T09:03:12;5.90;99.90
1049;DHT22;513;51.444;7.196;2023-02-01T09:05:38;5.90;99.90
1049;DHT22;513;51.444;7.196;2023-02-01T09:08:05;5.90;98.80
1049;DHT22;513;51.444;7.196;2023-02-01T09:10:33;5.90;96.10
1049;DHT22;513;51.444;7.196;2023-02-01T09:13:00;5.90;99.90
1049;DHT22;513;51.444;7.196;2023-02-01T09:15:27;5.90;99.10
1049;DHT22;513;51.444;7.196;2023-02-01T09:17:54;5.90;99.90
1049;DHT22;513;51.444;7.196;2023-02-01T09:20:22;5.90;99.90
1049;DHT22;513;51.444;7.196;2023-02-01T09:22:50;5.90;99.90
1049;DHT22;513;51.444;7.196;2023-02-01T09:25:17;6.00;99.90
1049;DHT22;513;51.444;7.196;2023-02-01T09:27:43;6.00;99.90
1049;DHT22;513;51.444;7.196;2023-02-01T09:30:11;6.10;97.30
1049;DHT22;513;51.444;7.196;2023-02-01T09:32:38;6.10;93.60
1049;DHT22;513;51.444;7.196;2023-02-01T09:35:05;6.20;91.20
1049;DHT22;513;51.444;7.196;2023-02-01T09:37:33;6.10;91.80
1049;DHT22;513;51.444;7.196;2023-02-01T09:40:00;6.10;89.10
1049;DHT22;513;51.444;7.196;2023-02-01T09:42:41;6.10;91.60
1049;DHT22;513;51.444;7.196;2023-02-01T09:45:17;6.00;97.90
1049;DHT22;513;51.444;7.196;2023-02-01T09:47:48;6.10;97.70
1049;DHT22;513;51.444;7.196;2023-02-01T09:50:20;6.10;91.80
1049;DHT22;513;51.444;7.196;2023-02-01T09:52:54;6.10;86.60
1049;DHT22;513;51.444;7.196;2023-02-01T09:55:29;6.10;91.80
1049;DHT22;513;51.444;7.196;2023-02-01T09:58:00;6.10;83.30
1049;DHT22;513;51.444;7.196;2023-02-01T10:00:30;6.20;90.90
1049;DHT22;513;51.444;7.196;2023-02-01T10:02:58;6.10;91.00
1049;DHT22;513;51.444;7.196;2023-02-01T10:05:49;6.10;88.40
1049;DHT22;513;51.444;7.196;2023-02-01T10:08:25;6.10;78.80
1049;DHT22;513;51.444;7.196;2023-02-01T10:11:05;6.30;81.20
1049;DHT22;513;51.444;7.196;2023-02-01T10:13:48;6.30;75.40
1049;DHT22;513;51.444;7.196;2023-02-01T10:16:28;6.30;72.20
1049;DHT22;513;51.444;7.196;2023-02-01T10:21:56;6.30;66.60
1049;DHT22;513;51.444;7.196;2023-02-01T10:24:36;6.30;58.60
1049;DHT22;513;51.444;7.196;2023-02-01T10:27:12;6.20;82.20
1049;DHT22;513;51.444;7.196;2023-02-01T10:29:41;6.30;78.20
1049;DHT22;513;51.444;7.196;2023-02-01T10:32:13;6.40;85.40
1049;DHT22;513;51.444;7.196;2023-02-01T10:34:41;6.40;61.40
1049;DHT22;513;51.444;7.196;2023-02-01T10:37:17;6.40;56.40
1049;DHT22;513;51.444;7.196;2023-02-01T10:39:47;6.30;70.30
1049;DHT22;513;51.444;7.196;2023-02-01T10:42:15;6.30;75.10
1049;DHT22;513;51.444;7.196;2023-02-01T10:44:44;6.20;70.40
1049;DHT22;513;51.444;7.196;2023-02-01T10:47:14;6.20;79.20
1049;DHT22;513;51.444;7.196;2023-02-01T10:49:47;6.30;72.40
1049;DHT22;513;51.444;7.196;2023-02-01T10:52:20;6.20;70.10
1049;DHT22;513;51.444;7.196;2023-02-01T10:54:49;6.20;67.10
1049;DHT22;513;51.444;7.196;2023-02-01T10:57:21;6.30;54.40
1049;DHT22;513;51.444;7.196;2023-02-01T10:59:49;6.30;67.10
1049;DHT22;513;51.444;7.196;2023-02-01T11:02:22;6.30;65.00
1049;DHT22;513;51.444;7.196;2023-02-01T11:04:58;6.30;53.60
1049;DHT22;513;51.444;7.196;2023-02-01T11:07:27;6.40;53.10
1049;DHT22;513;51.444;7.196;2023-02-01T11:09:56;6.40;62.50
1049;DHT22;513;51.444;7.196;2023-02-01T11:12:31;6.40;69.50
1049;DHT22;513;51.444;7.196;2023-02-01T11:15:02;6.40;64.80
1049;DHT22;513;51.444;7.196;2023-02-01T11:17:35;6.40;67.30
1049;DHT22;513;51.444;7.196;2023-02-01T11:20:08;6.40;58.40
1049;DHT22;513;51.444;7.196;2023-02-01T11:22:45;6.40;61.00
1049;DHT22;513;51.444;7.196;2023-02-01T11:25:16;6.40;55.70
1049;DHT22;513;51.444;7.196;2023-02-01T11:27:44;6.40;67.30
1049;DHT22;513;51.444;7.196;2023-02-01T11:30:15;6.70;64.60
1049;DHT22;513;51.444;7.196;2023-02-01T11:32:44;6.70;39.60
1049;DHT22;513;51.444;7.196;2023-02-01T11:35:15;6.70;29.20
1049;DHT22;513;51.444;7.196;2023-02-01T11:37:43;6.70;26.10
1049;DHT22;513;51.444;7.196;2023-02-01T11:40:26;6.70;29.70
1049;DHT22;513;51.444;7.196;2023-02-01T11:42:55;6.70;36.50
1049;DHT22;513;51.444;7.196;2023-02-01T11:45:26;6.70;33.30
1049;DHT22;513;51.444;7.196;2023-02-01T11:47:53;6.80;32.90
1049;DHT22;513;51.444;7.196;2023-02-01T11:50:28;6.80;18.90
1049;DHT22;513;51.444;7.196;2023-02-01T11:53:22;6.70;18.80
1049;DHT22;513;51.444;7.196;2023-02-01T11:55:58;6.80;21.50
1049;DHT22;513;51.444;7.196;2023-02-01T11:58:49;6.80;12.80
1049;DHT22;513;51.444;7.196;2023-02-01T12:01:40;6.70;18.90
1049;DHT22;513;51.444;7.196;2023-02-01T12:07:23;6.50;92.50
1049;DHT22;513;51.444;7.196;2023-02-01T12:10:04;6.40;99.90
1049;DHT22;513;51.444;7.196;2023-02-01T12:12:40;6.30;99.90
1049;DHT22;513;51.444;7.196;2023-02-01T12:15:26;6.20;99.90
1049;DHT22;513;51.444;7.196;2023-02-01T12:21:05;6.10;99.90
1049;DHT22;513;51.444;7.196;2023-02-01T12:23:41;6.20;99.90
1049;DHT22;513;51.444;7.196;2023-02-01T12:29:29;6.00;99.90
1049;DHT22;513;51.444;7.196;2023-02-01T12:32:07;6.00;99.90
1049;DHT22;513;51.444;7.196;2023-02-01T12:34:58;6.00;99.90
1049;DHT22;513;51.444;7.196;2023-02-01T12:37:41;6.00;99.90
1049;DHT22;513;51.444;7.196;2023-02-01T12:40:28;6.10;99.90
1049;DHT22;513;51.444;7.196;2023-02-01T12:43:03;6.10;99.90
1049;DHT22;513;51.444;7.196;2023-02-01T12:45:36;6.10;99.90
1049;DHT22;513;51.444;7.196;2023-02-01T12:48:19;6.20;99.90
1049;DHT22;513;51.444;7.196;2023-02-01T12:50:52;6.30;99.90
1049;DHT22;513;51.444;7.196;2023-02-01T12:53:24;6.30;99.90
1049;DHT22;513;51.444;7.196;2023-02-01T12:55:54;6.30;99.90
1049;DHT22;513;51.444;7.196;2023-02-01T12:58:24;6.40;99.90
1049;DHT22;513;51.444;7.196;2023-02-01T13:00:58;6.40;99.90
1049;DHT22;513;51.444;7.196;2023-02-01T13:03:34;6.40;99.90
1049;DHT22;513;51.444;7.196;2023-02-01T13:06:07;6.40;99.90
1049;DHT22;513;51.444;7.196;2023-02-01T13:08:41;6.50;99.90
1049;DHT22;513;51.444;7.196;2023-02-01T13:11:13;6.50;99.90
1049;DHT22;513;51.444;7.196;2023-02-01T13:13:47;6.40;99.90
1049;DHT22;513;51.444;7.196;2023-02-01T13:16:19;6.50;99.90
1049;DHT22;513;51.444;7.196;2023-02-01T13:18:51;6.40;99.90
1049;DHT22;513;51.444;7.196;2023-02-01T13:21:23;6.50;99.90
1049;DHT22;513;51.444;7.196;2023-02-01T13:23:51;6.40;99.90
1049;DHT22;513;51.444;7.196;2023-02-01T13:26:18;6.40;99.90
1049;DHT22;513;51.444;7.196;2023-02-01T13:28:47;6.40;99.90
1049;DHT22;513;51.444;7.196;2023-02-01T13:31:31;6.40;99.90
1049;DHT22;513;51.444;7.196;2023-02-01T13:34:29;6.40;99.90
1049;DHT22;513;51.444;7.196;2023-02-01T13:37:15;6.50;99.90
1049;DHT22;513;51.444;7.196;2023-02-01T13:40:17;6.50;96.80
1049;DHT22;513;51.444;7.196;2023-02-01T13:42:48;6.50;99.70
1049;DHT22;513;51.444;7.196;2023-02-01T13:45:17;6.60;94.30
1049;DHT22;513;51.444;7.196;2023-02-01T13:47:49;6.60;92.50
1049;DHT22;513;51.444;7.196;2023-02-01T13:50:22;6.70;89.10
1049;DHT22;513;51.444;7.196;2023-02-01T13:52:55;6.70;96.60
1049;DHT22;513;51.444;7.196;2023-02-01T13:55:31;6.70;91.90
1049;DHT22;513;51.444;7.196;2023-02-01T13:58:14;6.70;88.70
1049;DHT22;513;51.444;7.196;2023-02-01T14:00:42;6.80;60.50
1049;DHT22;513;51.444;7.196;2023-02-01T14:03:16;6.80;59.10
1049;DHT22;513;51.444;7.196;2023-02-01T14:06:02;6.90;51.40
1049;DHT22;513;51.444;7.196;2023-02-01T14:11:33;6.90;51.50
1049;DHT22;513;51.444;7.196;2023-02-01T14:17:34;6.90;73.90
1049;DHT22;513;51.444;7.196;2023-02-01T14:23:24;6.90;68.20
1049;DHT22;513;51.444;7.196;2023-02-01T14:26:12;6.90;55.80
1049;DHT22;513;51.444;7.196;2023-02-01T14:28:58;7.00;53.40
1049;DHT22;513;51.444;7.196;2023-02-01T14:31:59;7.00;53.00
1049;DHT22;513;51.444;7.196;2023-02-01T14:34:33;7.00;62.40
1049;DHT22;513;51.444;7.196;2023-02-01T14:37:03;7.00;75.90
1049;DHT22;513;51.444;7.196;2023-02-01T14:39:47;6.90;86.00
1049;DHT22;513;51.444;7.196;2023-02-01T14:42:22;6.90;91.40
1049;DHT22;513;51.444;7.196;2023-02-01T14:44:51;6.90;89.70
1049;DHT22;513;51.444;7.196;2023-02-01T14:47:33;6.90;82.10
1049;DHT22;513;51.444;7.196;2023-02-01T14:50:10;7.00;76.00
1049;DHT22;513;51.444;7.196;2023-02-01T14:52:39;7.00;68.00
1049;DHT22;513;51.444;7.196;2023-02-01T14:55:13;7.10;57.30
1049;DHT22;513;51.444;7.196;2023-02-01T14:57:43;7.10;58.20
1049;DHT22;513;51.444;7.196;2023-02-01T15:00:21;7.10;45.40
1049;DHT22;513;51.444;7.196;2023-02-01T15:02:50;7.10;48.90
1049;DHT22;513;51.444;7.196;2023-02-01T15:05:29;7.20;52.60
1049;DHT22;513;51.444;7.196;2023-02-01T15:08:00;7.20;50.20
1049;DHT22;513;51.444;7.196;2023-02-01T15:10:32;7.20;48.80
1049;DHT22;513;51.444;7.196;2023-02-01T15:13:00;7.10;40.10
1049;DHT22;513;51.444;7.196;2023-02-01T15:15:26;7.20;47.80
1049;DHT22;513;51.444;7.196;2023-02-01T15:17:55;7.20;45.50
1049;DHT22;513;51.444;7.196;2023-02-01T15:20:23;7.20;47.00
1049;DHT22;513;51.444;7.196;2023-02-01T15:22:55;7.20;47.90
1049;DHT22;513;51.444;7.196;2023-02-01T15:25:26;7.20;43.30
1049;DHT22;513;51.444;7.196;2023-02-01T15:27:54;7.30;28.60
1049;DHT22;513;51.444;7.196;2023-02-01T15:30:24;7.20;31.20
1049;DHT22;513;51.444;7.196;2023-02-01T15:33:03;7.30;36.30
1049;DHT22;513;51.444;7.196;2023-02-01T15:35:39;7.30;34.30
1049;DHT22;513;51.444;7.196;2023-02-01T15:38:39;7.20;39.30
1049;DHT22;513;51.444;7.196;2023-02-01T15:41:09;7.30;32.90
1049;DHT22;513;51.444;7.196;2023-02-01T15:43:42;7.30;29.00
1049;DHT22;513;51.444;7.196;2023-02-01T15:46:12;7.20;43.00
1049;DHT22;513;51.444;7.196;2023-02-01T15:48:45;7.20;35.10
1049;DHT22;513;51.444;7.196;2023-02-01T15:51:14;7.20;34.10
1049;DHT22;513;51.444;7.196;2023-02-01T15:53:55;7.20;26.90
1049;DHT22;513;51.444;7.196;2023-02-01T15:56:24;7.30;17.50
1049;DHT22;513;51.444;7.196;2023-02-01T15:58:55;7.30;17.20
1049;DHT22;513;51.444;7.196;2023-02-01T16:01:23;7.30;17.90
1049;DHT22;513;51.444;7.196;2023-02-01T16:04:02;7.20;21.30
1049;DHT22;513;51.444;7.196;2023-02-01T16:06:33;7.30;18.00
1049;DHT22;513;51.444;7.196;2023-02-01T16:09:12;7.30;12.00
1049;DHT22;513;51.444;7.196;2023-02-01T16:11:49;7.30;15.10
1049;DHT22;513;51.444;7.196;2023-02-01T16:14:17;7.30;8.90
1049;DHT22;513;51.444;7.196;2023-02-01T16:16:44;7.30;9.90
1049;DHT22;513;51.444;7.196;2023-02-01T16:19:10;7.30;8.90
1049;DHT22;513;51.444;7.196;2023-02-01T16:21:37;7.40;4.90
1049;DHT22;513;51.444;7.196;2023-02-01T16:24:04;7.30;18.60
1049;DHT22;513;51.444;7.196;2023-02-01T16:26:31;7.30;68.50
1049;DHT22;513;51.444;7.196;2023-02-01T16:28:58;7.30;94.00
1049;DHT22;513;51.444;7.196;2023-02-01T16:31:30;7.20;96.10
1049;DHT22;513;51.444;7.196;2023-02-01T16:33:57;7.20;98.70
1049;DHT22;513;51.444;7.196;2023-02-01T16:36:24;7.10;98.70
1049;DHT22;513;51.444;7.196;2023-02-01T16:38:52;7.00;99.90
1049;DHT22;513;51.444;7.196;2023-02-01T16:41:21;7.00;99.90
1049;DHT22;513;51.444;7.196;2023-02-01T16:43:50;6.90;99.90
1049;DHT22;513;51.444;7.196;2023-02-01T16:46:19;6.80;99.90
1049;DHT22;513;51.444;7.196;2023-02-01T16:48:53;6.70;99.90
1049;DHT22;513;51.444;7.196;2023-02-01T16:51:20;6.70;99.90
1049;DHT22;513;51.444;7.196;2023-02-01T16:53:47;6.50;99.90
1049;DHT22;513;51.444;7.196;2023-02-01T16:56:15;6.50;99.90
1049;DHT22;513;51.444;7.196;2023-02-01T16:58:43;6.50;99.90
1049;DHT22;513;51.444;7.196;2023-02-01T17:01:11;6.50;99.90
1049;DHT22;513;51.444;7.196;2023-02-01T17:03:38;6.50;99.90
1049;DHT22;513;51.444;7.196;2023-02-01T17:06:08;6.60;99.90
1049;DHT22;513;51.444;7.196;2023-02-01T17:08:37;6.60;99.90
1049;DHT22;513;51.444;7.196;2023-02-01T17:11:05;6.70;99.90
1049;DHT22;513;51.444;7.196;2023-02-01T17:13:33;6.70;99.90
1049;DHT22;513;51.444;7.196;2023-02-01T17:16:02;6.70;99.90
1049;DHT22;513;51.444;7.196;2023-02-01T17:18:32;6.80;99.90
1049;DHT22;513;51.444;7.196;2023-02-01T17:21:00;6.80;99.90
1049;DHT22;513;51.444;7.196;2023-02-01T17:23:29;6.60;99.90
1049;DHT22;513;51.444;7.196;2023-02-01T17:25:56;6.60;99.90